Time;durP1;ratioP1;P1;durP2;ratioP2;P2;SDS_P1;SDS_P2;PMS_P1;PMS_P2;Temp;Humidity;BMP_temperature;BMP_pressure;BME280_temperature;BME280_humidity;BME280_pressure;Samples;Min_cycle;Max_cycle;Signal;HPM_P1;HPM_P2
2022/05/11 00:00:29;;;;;;;4.50;4.10;;;18.30;59.30;;;;;;946663;148;27465;-73
2022/05/11 00:02:56;;;;;;;5.73;4.53;;;18.30;59.40;;;;;;945942;148;27391;-73
2022/05/11 00:05:23;;;;;;;4.50;4.10;;;18.30;59.50;;;;;;945527;148;28033;-73
2022/05/11 00:07:49;;;;;;;4.45;4.05;;;18.30;60.20;;;;;;945774;148;28325;-73
2022/05/11 00:10:16;;;;;;;4.50;4.20;;;18.30;59.70;;;;;;945624;148;27341;-73
2022/05/11 00:12:42;;;;;;;4.95;4.55;;;18.30;59.80;;;;;;941893;148;27390;-73
2022/05/11 00:15:09;;;;;;;4.33;4.03;;;18.30;60.00;;;;;;938367;150;27342;-73
2022/05/11 00:17:36;;;;;;;4.17;3.83;;;18.30;60.00;;;;;;937239;150;27466;-73
2022/05/11 00:20:02;;;;;;;4.67;4.37;;;18.30;60.10;;;;;;947054;149;27322;-73
2022/05/11 00:22:29;;;;;;;4.45;4.15;;;18.30;60.10;;;;;;929225;151;27334;-73
2022/05/11 00:24:55;;;;;;;4.50;4.10;;;18.30;60.40;;;;;;939735;150;27357;-73
2022/05/11 00:27:22;;;;;;;4.70;4.30;;;18.30;60.30;;;;;;945808;149;27287;-73
2022/05/11 00:29:49;;;;;;;4.12;3.83;;;18.40;60.60;;;;;;930611;152;27316;-73
2022/05/11 00:32:15;;;;;;;8.88;4.92;;;18.40;60.50;;;;;;925537;152;27903;-73
2022/05/11 00:34:42;;;;;;;4.53;4.22;;;18.40;60.50;;;;;;939224;150;27321;-73
2022/05/11 00:37:08;;;;;;;4.97;4.53;;;18.40;60.60;;;;;;924106;152;27389;-73
2022/05/11 00:39:35;;;;;;;4.50;4.10;;;18.50;61.20;;;;;;939653;151;27452;-73
2022/05/11 00:42:02;;;;;;;4.87;4.47;;;18.40;60.70;;;;;;931737;152;27409;-73
2022/05/11 00:44:28;;;;;;;5.17;4.70;;;18.50;60.90;;;;;;939834;150;27763;-73
2022/05/11 00:46:57;;;;;;;4.65;4.33;;;18.50;60.90;;;;;;945702;149;27450;-73
2022/05/11 00:49:39;;;;;;;4.67;4.28;;;18.50;60.80;;;;;;937971;150;27349;-73
2022/05/11 00:52:11;;;;;;;4.85;4.45;;;18.50;60.90;;;;;;938804;150;27389;-73
2022/05/11 00:54:38;;;;;;;4.72;4.42;;;18.50;60.70;;;;;;922959;152;27378;-73
2022/05/11 00:57:04;;;;;;;5.12;4.65;;;18.50;60.90;;;;;;946688;149;27356;-73
2022/05/11 00:59:31;;;;;;;4.97;4.58;;;18.50;60.90;;;;;;922007;153;27367;-73
2022/05/11 01:01:59;;;;;;;5.47;4.85;;;18.50;61.00;;;;;;921519;153;27294;-73
2022/05/11 01:04:24;;;;;;;5.50;5.10;;;18.50;61.10;;;;;;923401;152;27363;-73
2022/05/11 01:06:51;;;;;;;4.62;4.28;;;18.40;62.00;;;;;;922202;154;27470;-73
2022/05/11 01:09:17;;;;;;;5.08;4.67;;;18.40;61.30;;;;;;947464;149;27413;-73
2022/05/11 01:11:44;;;;;;;4.30;4.00;;;18.30;61.40;;;;;;949538;149;27355;-73
2022/05/11 01:14:11;;;;;;;4.95;4.55;;;18.30;61.50;;;;;;937466;149;27461;-73
2022/05/11 01:16:37;;;;;;;5.30;4.90;;;18.30;61.60;;;;;;951638;149;27345;-73
2022/05/11 01:19:04;;;;;;;4.92;4.45;;;18.30;61.70;;;;;;941558;149;27324;-73
2022/05/11 01:21:30;;;;;;;5.10;4.60;;;18.20;61.80;;;;;;946313;148;27935;-73
2022/05/11 01:23:57;;;;;;;4.92;4.40;;;18.20;62.00;;;;;;945054;148;27316;-73
2022/05/11 01:26:24;;;;;;;4.80;4.40;;;18.10;62.00;;;;;;945111;148;27364;-73
2022/05/11 01:28:54;;;;;;;5.73;5.20;;;18.10;62.30;;;;;;946238;148;27295;-73
2022/05/11 01:31:17;;;;;;;5.13;4.63;;;18.00;62.30;;;;;;946244;148;27341;-73
2022/05/11 01:33:43;;;;;;;5.33;4.93;;;18.00;62.50;;;;;;946370;148;27364;-73
2022/05/11 01:36:31;;;;;;;5.07;4.67;;;17.90;62.70;;;;;;946804;148;27424;-73
2022/05/11 01:38:58;;;;;;;5.08;4.67;;;17.90;62.90;;;;;;945859;148;27286;-73
2022/05/11 01:41:27;;;;;;;4.97;4.57;;;17.80;62.80;;;;;;945075;148;27311;-73
2022/05/11 01:43:54;;;;;;;4.80;4.50;;;17.80;63.10;;;;;;946152;148;27312;-73
2022/05/11 01:46:20;;;;;;;5.37;4.97;;;17.70;63.20;;;;;;946247;148;27308;-73
2022/05/11 01:48:47;;;;;;;5.47;4.97;;;17.70;63.50;;;;;;946447;148;27343;-73
2022/05/11 01:51:13;;;;;;;5.23;4.73;;;17.70;63.60;;;;;;946956;148;27371;-73
2022/05/11 01:53:40;;;;;;;5.07;4.70;;;17.60;63.80;;;;;;946424;148;27390;-73
2022/05/11 01:56:07;;;;;;;4.93;4.43;;;17.60;63.90;;;;;;946228;147;27460;-73
2022/05/11 01:58:33;;;;;;;4.90;4.50;;;17.60;64.10;;;;;;946608;148;27398;-73
2022/05/11 02:01:00;;;;;;;5.23;4.83;;;17.50;64.10;;;;;;945719;148;27894;-73
2022/05/11 02:03:26;;;;;;;5.47;5.08;;;17.50;64.50;;;;;;945278;148;27371;-73
2022/05/11 02:08:38;;;;;;;5.00;4.50;;;17.50;64.70;;;;;;946230;148;27307;-73
2022/05/11 02:11:04;;;;;;;7.43;5.77;;;17.40;64.60;;;;;;946122;148;27415;-73
2022/05/11 02:13:32;;;;;;;4.97;4.57;;;17.40;64.90;;;;;;947953;148;27455;-73
2022/05/11 02:15:57;;;;;;;5.00;4.60;;;17.40;65.00;;;;;;945254;149;27453;-73
2022/05/11 02:18:24;;;;;;;5.00;4.60;;;17.30;65.10;;;;;;948929;149;28240;-73
2022/05/11 02:20:51;;;;;;;5.63;5.17;;;17.30;65.40;;;;;;952857;147;27760;-73
2022/05/11 02:23:17;;;;;;;6.12;5.15;;;17.30;65.50;;;;;;958995;146;27304;-73
2022/05/11 02:25:44;;;;;;;5.07;4.57;;;17.30;65.60;;;;;;957672;146;27306;-73
2022/05/11 02:28:11;;;;;;;5.10;4.70;;;17.20;65.60;;;;;;958098;146;27775;-73
2022/05/11 02:30:37;;;;;;;5.23;4.83;;;17.20;65.70;;;;;;944389;149;28507;-72
2022/05/11 02:33:04;;;;;;;5.80;5.30;;;17.20;65.80;;;;;;968848;146;27765;-72
2022/05/11 02:35:31;;;;;;;5.37;4.77;;;17.20;66.00;;;;;;953300;149;27329;-72
2022/05/11 02:38:00;;;;;;;5.53;5.03;;;17.20;66.10;;;;;;949548;148;27416;-72
2022/05/11 02:40:33;;;;;;;5.43;5.03;;;17.10;66.10;;;;;;949964;149;27422;-73
2022/05/11 02:43:02;;;;;;;5.70;5.10;;;17.10;66.30;;;;;;950038;149;27382;-73
2022/05/11 02:45:26;;;;;;;5.10;4.70;;;17.10;66.40;;;;;;959614;146;27373;-72
2022/05/11 02:47:53;;;;;;;5.10;4.70;;;17.00;66.50;;;;;;959656;146;27415;-72
2022/05/11 02:50:22;;;;;;;5.90;5.50;;;17.00;66.70;;;;;;948420;149;27384;-72
2022/05/11 02:52:48;;;;;;;5.47;5.07;;;17.00;66.90;;;;;;942113;149;27420;-73
2022/05/11 02:55:15;;;;;;;5.60;5.10;;;17.00;67.00;;;;;;951623;148;27374;-72
2022/05/11 02:57:42;;;;;;;5.57;5.17;;;17.00;67.20;;;;;;958289;146;27336;-72
2022/05/11 03:00:09;;;;;;;5.67;5.27;;;16.90;67.30;;;;;;936667;149;27394;-73
2022/05/11 03:02:35;;;;;;;6.13;5.57;;;16.90;67.40;;;;;;943222;149;27408;-72
2022/05/11 03:05:01;;;;;;;6.20;5.43;;;16.90;67.60;;;;;;967652;146;27370;-73
2022/05/11 03:07:28;;;;;;;5.73;5.33;;;16.90;67.80;;;;;;953605;149;27435;-72
2022/05/11 03:09:54;;;;;;;5.70;5.30;;;16.90;67.90;;;;;;960020;146;27353;-72
2022/05/11 03:12:24;;;;;;;6.00;5.50;;;16.90;68.10;;;;;;942532;149;27310;-73
2022/05/11 03:14:48;;;;;;;5.87;5.37;;;16.90;68.30;;;;;;941964;149;27397;-72
2022/05/11 03:17:14;;;;;;;5.63;5.13;;;16.90;68.30;;;;;;965757;146;27346;-72
2022/05/11 03:19:41;;;;;;;6.10;5.60;;;16.90;68.40;;;;;;951100;149;27365;-72
2022/05/11 03:22:07;;;;;;;6.20;5.70;;;16.90;68.50;;;;;;949840;148;27410;-72
2022/05/11 03:24:34;;;;;;;6.05;5.60;;;16.90;68.60;;;;;;957368;146;27398;-72
2022/05/11 03:27:01;;;;;;;5.20;4.80;;;16.90;68.70;;;;;;956483;146;27473;-72
2022/05/11 03:29:28;;;;;;;6.28;5.78;;;17.00;68.80;;;;;;956240;146;27318;-72
2022/05/11 03:34:39;;;;;;;5.85;5.35;;;17.00;68.90;;;;;;956075;146;27876;-73
2022/05/11 03:37:08;;;;;;;6.35;5.85;;;17.00;68.90;;;;;;963376;146;27414;-72
2022/05/11 03:39:35;;;;;;;5.72;5.33;;;17.00;69.10;;;;;;940324;149;27525;-72
2022/05/11 03:42:01;;;;;;;5.83;5.40;;;17.00;69.10;;;;;;945831;148;27443;-72
2022/05/11 03:44:40;;;;;;;4.97;4.67;;;17.00;69.20;;;;;;946266;148;27394;-72
2022/05/11 03:47:06;;;;;;;5.92;5.40;;;17.00;69.20;;;;;;945996;148;27349;-73
2022/05/11 03:49:33;;;;;;;5.92;5.42;;;17.00;69.20;;;;;;946113;148;27430;-72
2022/05/11 03:51:59;;;;;;;6.07;5.47;;;17.00;69.30;;;;;;946428;148;27315;-72
2022/05/11 03:54:26;;;;;;;5.80;5.30;;;17.00;69.40;;;;;;946638;148;27338;-72
2022/05/11 03:56:53;;;;;;;6.03;5.60;;;17.00;69.50;;;;;;946294;148;27293;-72
2022/05/11 03:59:19;;;;;;;5.90;5.50;;;17.10;69.70;;;;;;945500;148;27366;-73
2022/05/11 04:01:46;;;;;;;6.60;5.53;;;17.00;69.80;;;;;;945839;148;27334;-73
2022/05/11 04:04:12;;;;;;;5.73;5.13;;;17.00;69.90;;;;;;945433;148;27507;-73
2022/05/11 04:06:39;;;;;;;5.42;4.90;;;17.00;70.00;;;;;;946026;148;27674;-73
2022/05/11 04:09:06;;;;;;;6.30;5.80;;;17.00;70.20;;;;;;946247;148;27676;-72
2022/05/11 04:11:33;;;;;;;6.30;5.70;;;17.10;70.40;;;;;;946520;148;27371;-73
2022/05/11 04:13:59;;;;;;;5.75;5.33;;;17.10;70.50;;;;;;946735;148;27349;-72
2022/05/11 04:16:25;;;;;;;5.73;5.33;;;17.10;70.60;;;;;;945139;148;27374;-73
2022/05/11 04:18:52;;;;;;;6.65;5.85;;;17.10;70.80;;;;;;946636;148;27412;-73
2022/05/11 04:21:19;;;;;;;5.57;5.17;;;17.10;70.90;;;;;;945920;148;27246;-72
2022/05/11 04:23:45;;;;;;;5.17;4.78;;;17.10;71.00;;;;;;946148;148;27314;-72
2022/05/11 04:26:12;;;;;;;5.70;5.20;;;17.10;71.00;;;;;;946510;148;27338;-73
2022/05/11 04:28:39;;;;;;;5.87;5.37;;;17.20;71.30;;;;;;946492;148;27351;-72
2022/05/11 04:31:05;;;;;;;5.50;5.10;;;17.20;71.30;;;;;;946339;148;27334;-73
2022/05/11 04:33:31;;;;;;;6.07;5.57;;;17.20;71.40;;;;;;946400;148;27423;-73
2022/05/11 04:35:58;;;;;;;6.10;5.60;;;17.20;71.50;;;;;;946844;148;27315;-73
2022/05/11 04:38:25;;;;;;;6.40;5.00;;;17.30;71.60;;;;;;946602;148;27398;-73
2022/05/11 04:40:51;;;;;;;5.55;5.15;;;17.30;71.60;;;;;;946847;148;27443;-72
2022/05/11 04:43:18;;;;;;;5.87;5.47;;;17.30;71.70;;;;;;946525;148;28531;-73
2022/05/11 04:45:44;;;;;;;5.67;5.20;;;17.40;72.70;;;;;;946652;148;27376;-72
2022/05/11 04:48:11;;;;;;;5.70;5.20;;;17.40;72.10;;;;;;946703;148;27371;-72
2022/05/11 04:50:38;;;;;;;5.28;4.87;;;17.50;72.30;;;;;;946649;148;27398;-72
2022/05/11 04:53:04;;;;;;;5.87;5.42;;;17.60;72.60;;;;;;945534;148;27335;-73
2022/05/11 04:55:31;;;;;;;5.60;5.20;;;17.60;72.60;;;;;;946321;148;27322;-72
2022/05/11 04:57:57;;;;;;;6.10;5.50;;;17.70;72.80;;;;;;946570;148;27355;-72
2022/05/11 05:00:25;;;;;;;5.00;4.60;;;17.80;73.00;;;;;;945726;148;27309;-72
2022/05/11 05:02:51;;;;;;;5.97;5.20;;;18.00;73.10;;;;;;946517;148;27303;-73
2022/05/11 05:05:17;;;;;;;6.80;6.20;;;18.10;73.10;;;;;;946393;148;27347;-72
2022/05/11 05:07:44;;;;;;;6.03;5.42;;;18.30;72.90;;;;;;945906;148;27349;-73
2022/05/11 05:10:12;;;;;;;5.40;4.90;;;18.40;72.50;;;;;;946780;148;27344;-72
2022/05/11 05:12:37;;;;;;;5.60;5.00;;;18.50;72.10;;;;;;946278;148;27391;-73
2022/05/11 05:15:03;;;;;;;5.87;5.30;;;18.60;71.80;;;;;;945505;148;27270;-73
2022/05/11 05:17:30;;;;;;;4.87;4.45;;;18.70;71.70;;;;;;938421;149;27322;-73
2022/05/11 05:19:57;;;;;;;5.80;5.30;;;18.90;72.10;;;;;;939116;149;27330;-72
2022/05/11 05:22:23;;;;;;;4.90;4.60;;;19.00;73.10;;;;;;938189;149;27429;-72
2022/05/11 05:24:50;;;;;;;5.83;4.72;;;19.30;74.60;;;;;;939124;149;27316;-73
2022/05/11 05:27:16;;;;;;;5.12;4.53;;;19.80;75.80;;;;;;939059;149;27300;-72
2022/05/11 05:32:28;;;;;;;4.87;4.47;;;21.00;76.50;;;;;;938794;149;27340;-73
2022/05/11 05:34:57;;;;;;;4.62;4.20;;;21.90;75.90;;;;;;925789;151;27366;-73
2022/05/11 05:37:21;;;;;;;4.47;4.10;;;22.70;75.00;;;;;;949505;148;27380;-73
2022/05/11 05:39:47;;;;;;;4.10;3.70;;;23.60;73.80;;;;;;940334;149;27322;-73
2022/05/11 05:42:20;;;;;;;4.05;3.75;;;24.50;72.10;;;;;;940544;149;27332;-73
2022/05/11 05:44:46;;;;;;;4.30;4.00;;;25.40;70.30;;;;;;940176;149;27380;-73
2022/05/11 05:47:13;;;;;;;4.22;3.92;;;26.40;68.40;;;;;;939945;149;27484;-73
2022/05/11 05:49:40;;;;;;;4.17;3.58;;;27.20;67.00;;;;;;940635;149;27674;-73
2022/05/11 05:52:07;;;;;;;3.85;3.65;;;28.10;64.60;;;;;;939664;149;27440;-74
2022/05/11 05:54:33;;;;;;;4.28;3.87;;;28.80;62.10;;;;;;939539;149;27440;-74
2022/05/11 05:56:59;;;;;;;4.00;3.62;;;29.50;60.10;;;;;;940171;149;27322;-74
2022/05/11 05:59:26;;;;;;;4.22;3.20;;;30.20;58.90;;;;;;940245;149;27459;-73
2022/05/11 06:01:53;;;;;;;3.98;3.67;;;30.90;58.00;;;;;;940544;149;27305;-74
2022/05/11 06:04:19;;;;;;;3.27;3.08;;;31.40;56.80;;;;;;940023;149;27321;-73
2022/05/11 06:06:46;;;;;;;3.22;2.83;;;32.00;55.90;;;;;;940088;149;27419;-73
2022/05/11 06:09:12;;;;;;;3.35;2.83;;;32.50;55.00;;;;;;939176;149;27504;-73
2022/05/11 06:11:39;;;;;;;2.80;2.50;;;33.00;54.00;;;;;;939058;149;27382;-73
2022/05/11 06:14:05;;;;;;;2.60;2.50;;;33.50;53.10;;;;;;940573;149;27386;-73
2022/05/11 06:16:32;;;;;;;3.02;2.83;;;34.00;52.30;;;;;;939299;149;27389;-73
2022/05/11 06:18:59;;;;;;;2.70;2.50;;;34.50;51.30;;;;;;939822;149;26335;-73
2022/05/11 06:21:25;;;;;;;2.30;2.20;;;35.00;50.40;;;;;;940435;149;26258;-73
2022/05/11 06:23:52;;;;;;;2.72;2.42;;;35.40;49.60;;;;;;940000;149;26235;-74
2022/05/11 06:26:18;;;;;;;4.20;2.37;;;35.90;48.80;;;;;;939386;149;26397;-73
2022/05/11 06:28:45;;;;;;;2.05;1.95;;;36.30;48.10;;;;;;939405;149;26356;-73
2022/05/11 06:31:12;;;;;;;2.22;2.12;;;36.70;47.50;;;;;;940595;149;27450;-73
2022/05/11 06:33:38;;;;;;;2.12;2.02;;;37.10;46.50;;;;;;940972;149;26317;-74
2022/05/11 06:36:05;;;;;;;2.10;2.00;;;37.50;45.80;;;;;;940706;149;26244;-73
2022/05/11 06:38:31;;;;;;;2.33;1.85;;;37.70;44.90;;;;;;940109;149;26367;-73
2022/05/11 06:41:05;;;;;;;2.60;2.20;;;38.10;44.80;;;;;;939842;149;26982;-74
2022/05/11 06:43:25;;;;;;;2.22;2.10;;;38.30;43.50;;;;;;939787;149;26293;-74
2022/05/11 06:45:51;;;;;;;3.25;2.15;;;38.50;43.00;;;;;;939894;149;26283;-74
2022/05/11 06:48:18;;;;;;;1.90;1.80;;;38.80;42.50;;;;;;939919;149;26352;-74
2022/05/11 06:50:44;;;;;;;2.15;2.02;;;39.00;41.80;;;;;;939555;149;26284;-74
2022/05/11 06:53:11;;;;;;;2.25;2.05;;;39.10;41.00;;;;;;940109;149;27371;-74
2022/05/11 07:01:13;;;;;;;2.20;2.10;;;39.60;40.00;;;;;;940121;149;26285;-73
2022/05/11 07:03:40;;;;;;;2.00;1.90;;;39.70;39.70;;;;;;940290;149;26396;-74
2022/05/11 07:06:06;;;;;;;2.00;1.90;;;39.80;39.20;;;;;;940197;149;26265;-74
2022/05/11 07:08:39;;;;;;;2.08;1.98;;;39.90;38.50;;;;;;940034;149;26375;-73
2022/05/11 07:13:55;;;;;;;2.00;1.90;;;39.70;37.50;;;;;;939780;149;26259;-73
2022/05/11 07:16:18;;;;;;;1.80;1.70;;;39.50;37.30;;;;;;928961;150;26264;-74
2022/05/11 07:18:43;;;;;;;2.00;1.80;;;39.30;37.20;;;;;;941709;149;26249;-74
2022/05/11 07:21:10;;;;;;;2.20;2.00;;;39.10;37.10;;;;;;941732;149;26280;-74
2022/05/11 07:23:37;;;;;;;1.82;1.72;;;39.00;37.10;;;;;;941795;149;26371;-74
2022/05/11 07:26:03;;;;;;;1.95;1.85;;;38.90;37.00;;;;;;941768;149;26218;-73
2022/05/11 07:28:30;;;;;;;1.72;1.62;;;38.80;37.00;;;;;;949879;148;26318;-74
2022/05/11 07:30:56;;;;;;;2.85;2.10;;;38.80;37.10;;;;;;949636;148;26279;-74
2022/05/11 07:33:23;;;;;;;1.82;1.72;;;38.80;36.80;;;;;;949161;148;26263;-74
2022/05/11 07:35:50;;;;;;;2.08;1.90;;;38.70;36.60;;;;;;957414;146;27840;-73
2022/05/11 07:38:17;;;;;;;2.77;1.75;;;38.70;36.40;;;;;;940422;149;26617;-74
2022/05/11 07:40:43;;;;;;;2.52;2.00;;;38.70;36.30;;;;;;940179;149;26271;-74
2022/05/11 07:43:09;;;;;;;2.00;1.60;;;38.70;36.30;;;;;;944267;149;28044;-74
2022/05/11 07:45:36;;;;;;;1.92;1.82;;;38.80;36.30;;;;;;961921;146;27734;-74
2022/05/11 07:48:03;;;;;;;1.70;1.60;;;38.90;36.30;;;;;;944472;149;26396;-74
2022/05/11 07:50:30;;;;;;;1.77;1.67;;;39.10;36.30;;;;;;956904;146;26916;-74
2022/05/11 07:52:56;;;;;;;1.92;1.82;;;39.30;36.10;;;;;;947893;149;26232;-74
2022/05/11 07:55:25;;;;;;;1.80;1.70;;;39.60;35.60;;;;;;956771;146;26343;-74
2022/05/11 08:00:34;;;;;;;3.22;1.40;;;40.30;34.80;;;;;;957100;146;26298;-74
2022/05/11 08:03:00;;;;;;;1.50;1.50;;;40.70;34.60;;;;;;957647;146;26281;-74
2022/05/11 08:05:27;;;;;;;1.40;1.27;;;41.00;34.30;;;;;;959577;146;27679;-74
2022/05/11 08:07:53;;;;;;;1.60;1.50;;;41.40;33.90;;;;;;958390;146;26340;-74
2022/05/11 08:10:26;;;;;;;1.90;1.80;;;41.70;33.50;;;;;;950220;148;26233;-74
2022/05/11 08:12:52;;;;;;;1.57;1.50;;;42.00;33.00;;;;;;958276;146;26344;-74
2022/05/11 08:15:19;;;;;;;2.02;1.60;;;42.40;32.70;;;;;;957323;146;26371;-74
2022/05/11 08:17:46;;;;;;;1.95;1.47;;;42.70;32.30;;;;;;949796;148;26207;-75
2022/05/11 08:20:14;;;;;;;1.75;1.65;;;43.10;32.00;;;;;;948898;148;26327;-74
2022/05/11 08:22:39;;;;;;;1.60;1.50;;;43.40;31.60;;;;;;947653;148;26222;-74
2022/05/11 08:25:05;;;;;;;1.60;1.50;;;43.70;31.00;;;;;;936728;150;26254;-74
2022/05/11 08:27:32;;;;;;;1.70;1.30;;;44.00;30.60;;;;;;943553;148;26370;-74
2022/05/11 08:35:29;;;;;;;2.60;1.50;;;44.70;29.80;;;;;;936653;150;27041;-75
2022/05/11 08:37:55;;;;;;;3.40;1.45;;;44.90;29.30;;;;;;936805;150;26229;-74
2022/05/11 08:40:28;;;;;;;1.50;1.40;;;45.00;28.90;;;;;;936156;150;26286;-74
2022/05/11 08:42:54;;;;;;;1.30;1.20;;;45.00;28.50;;;;;;934776;150;26441;-74
2022/05/11 08:45:20;;;;;;;1.50;1.20;;;45.00;28.40;;;;;;936132;150;26238;-74
2022/05/11 08:47:49;;;;;;;2.08;1.27;;;45.00;28.20;;;;;;936480;150;26346;-74
2022/05/11 08:50:16;;;;;;;2.80;1.50;;;44.80;28.00;;;;;;942707;148;26223;-74
2022/05/11 08:52:47;;;;;;;3.47;1.25;;;44.80;28.00;;;;;;942011;148;26338;-75
2022/05/11 08:55:18;;;;;;;1.60;1.50;;;44.70;28.00;;;;;;942497;148;26335;-74
2022/05/11 08:57:44;;;;;;;2.35;1.55;;;44.60;27.90;;;;;;949545;148;26315;-74
2022/05/11 09:00:11;;;;;;;1.42;1.32;;;44.60;28.10;;;;;;948871;148;26198;-75
2022/05/11 09:02:37;;;;;;;1.30;1.20;;;44.70;28.60;;;;;;936704;150;26277;-75
2022/05/11 09:05:05;;;;;;;2.58;1.62;;;44.80;27.80;;;;;;936619;150;26304;-74
2022/05/11 09:07:36;;;;;;;1.65;1.30;;;44.90;27.70;;;;;;936978;150;26266;-74
2022/05/11 09:10:03;;;;;;;2.33;1.40;;;45.00;27.60;;;;;;936980;150;26226;-74
2022/05/11 09:12:30;;;;;;;2.47;1.20;;;45.10;27.50;;;;;;936483;150;26392;-74
2022/05/11 09:14:57;;;;;;;2.08;1.30;;;45.10;27.20;;;;;;937155;150;26354;-75
2022/05/11 09:17:26;;;;;;;2.77;1.55;;;45.20;27.20;;;;;;935767;150;26373;-74
2022/05/11 09:20:04;;;;;;;4.05;1.60;;;45.20;27.10;;;;;;926691;151;26387;-74
2022/05/11 09:22:30;;;;;;;1.30;1.20;;;45.20;27.10;;;;;;943420;149;26244;-72
2022/05/11 09:24:57;;;;;;;1.35;1.22;;;45.20;27.20;;;;;;943715;150;26275;-73
2022/05/11 09:27:24;;;;;;;2.17;1.50;;;45.30;27.00;;;;;;950724;148;26386;-72
2022/05/11 09:30:05;;;;;;;2.72;1.50;;;45.50;26.90;;;;;;926661;152;26289;-72
2022/05/11 09:32:38;;;;;;;2.37;1.47;;;45.50;26.40;;;;;;926119;152;26272;-74
2022/05/11 09:35:33;;;;;;;1.80;1.70;;;45.50;26.10;;;;;;929392;152;26338;-74
2022/05/11 09:38:10;;;;;;;1.70;1.40;;;45.20;25.80;;;;;;929395;152;26326;-74
2022/05/11 09:41:01;;;;;;;2.12;1.40;;;45.00;25.90;;;;;;924665;152;26286;-74
2022/05/11 09:43:40;;;;;;;1.30;1.20;;;44.70;25.80;;;;;;953875;148;26228;-74
2022/05/11 09:46:15;;;;;;;1.77;1.57;;;44.30;25.80;;;;;;926074;152;26319;-74
2022/05/11 09:48:42;;;;;;;2.17;1.40;;;43.90;26.10;;;;;;926367;152;26188;-74
2022/05/11 09:51:14;;;;;;;2.00;1.50;;;43.60;26.30;;;;;;924533;152;26255;-74
2022/05/11 09:53:41;;;;;;;1.75;1.47;;;43.30;26.50;;;;;;926107;152;27773;-74
2022/05/11 09:56:31;;;;;;;3.17;1.50;;;43.00;26.50;;;;;;924499;152;26261;-74
2022/05/11 09:58:58;;;;;;;2.67;1.37;;;42.80;26.40;;;;;;922652;151;28478;-73
2022/05/11 10:01:28;;;;;;;2.22;1.67;;;42.40;26.30;;;;;;924997;151;26225;-72
2022/05/11 10:04:00;;;;;;;1.62;1.42;;;42.00;26.30;;;;;;928520;152;26390;-73
2022/05/11 10:06:27;;;;;;;1.50;1.40;;;41.60;26.40;;;;;;927301;151;26409;-74
2022/05/11 10:08:53;;;;;;;2.62;1.32;;;41.20;26.60;;;;;;952553;148;26577;-73
2022/05/11 10:11:26;;;;;;;2.25;1.85;;;40.70;26.80;;;;;;949080;148;26244;-74
2022/05/11 10:22:30;;;;;;;2.35;1.75;;;38.80;27.30;;;;;;941011;148;26374;-74
2022/05/11 10:25:25;;;;;;;3.50;1.90;;;38.30;27.70;;;;;;941037;148;27435;-74
2022/05/11 10:28:00;;;;;;;2.00;1.90;;;37.90;28.00;;;;;;941891;148;28019;-74
2022/05/11 10:30:28;;;;;;;2.72;1.75;;;37.50;28.30;;;;;;939673;149;27500;-74
2022/05/11 10:32:56;;;;;;;1.90;1.80;;;37.10;28.40;;;;;;940502;149;27340;-74
2022/05/11 10:35:31;;;;;;;2.00;1.90;;;36.80;28.70;;;;;;940871;149;27458;-74
2022/05/11 10:38:03;;;;;;;2.25;2.02;;;36.50;28.90;;;;;;940324;149;27334;-74
2022/05/11 10:40:32;;;;;;;2.58;1.98;;;36.30;29.30;;;;;;942430;149;27349;-74
2022/05/11 10:43:21;;;;;;;2.15;2.05;;;36.10;29.60;;;;;;941857;149;27424;-74
2022/05/11 10:46:08;;;;;;;1.98;1.77;;;35.90;29.90;;;;;;941663;149;27498;-73
2022/05/11 10:48:37;;;;;;;2.75;2.08;;;35.70;30.00;;;;;;941949;149;27476;-74
2022/05/11 10:51:16;;;;;;;2.25;2.05;;;35.60;30.20;;;;;;941860;149;27664;-73
2022/05/11 10:54:05;;;;;;;2.15;2.02;;;35.50;30.20;;;;;;941202;149;27424;-73
2022/05/11 10:56:48;;;;;;;2.60;2.40;;;35.50;30.30;;;;;;941160;149;27407;-74
2022/05/11 10:59:33;;;;;;;2.92;2.22;;;35.30;30.30;;;;;;941784;149;27391;-74
2022/05/11 11:02:18;;;;;;;2.08;1.98;;;35.20;30.70;;;;;;940977;149;27376;-73
2022/05/11 11:04:56;;;;;;;5.12;2.02;;;35.10;30.70;;;;;;939837;149;27435;-74
2022/05/11 11:07:28;;;;;;;2.27;2.08;;;35.00;30.90;;;;;;917158;149;27872;-74
2022/05/11 11:10:00;;;;;;;3.17;2.15;;;34.80;31.00;;;;;;941049;149;27315;-74
2022/05/11 11:12:49;;;;;;;4.40;2.17;;;34.70;31.20;;;;;;940120;149;27458;-74
2022/05/11 11:15:12;;;;;;;3.70;2.02;;;34.60;31.50;;;;;;939998;149;27431;-74
2022/05/11 11:17:38;;;;;;;1.87;1.77;;;34.40;31.40;;;;;;941097;149;27400;-74
2022/05/11 11:20:05;;;;;;;3.70;2.10;;;34.30;31.60;;;;;;942825;149;27375;-74
2022/05/11 11:22:50;;;;;;;2.65;2.05;;;34.20;31.60;;;;;;943306;149;27324;-74
2022/05/11 11:25:16;;;;;;;2.37;2.05;;;34.10;31.80;;;;;;937948;149;27371;-74
2022/05/11 11:28:08;;;;;;;2.00;1.90;;;34.00;31.70;;;;;;942168;149;27356;-74
2022/05/11 11:30:31;;;;;;;1.67;1.57;;;33.90;32.00;;;;;;942346;149;27302;-74
2022/05/11 11:33:12;;;;;;;2.45;2.25;;;33.80;32.10;;;;;;942829;149;27311;-73
2022/05/11 11:35:56;;;;;;;2.30;2.10;;;33.80;32.10;;;;;;943082;149;27424;-74
2022/05/11 11:38:32;;;;;;;1.70;1.60;;;33.70;32.10;;;;;;943822;149;27342;-74
2022/05/11 11:41:16;;;;;;;5.17;2.27;;;33.70;32.10;;;;;;942796;150;27335;-74
2022/05/11 11:43:55;;;;;;;6.17;1.72;;;33.70;32.30;;;;;;927942;151;27413;-73
2022/05/11 11:46:42;;;;;;;1.85;1.75;;;33.70;32.40;;;;;;927551;152;27318;-74
2022/05/11 11:49:09;;;;;;;2.25;1.85;;;33.70;32.20;;;;;;927163;152;27429;-74
2022/05/11 11:51:56;;;;;;;1.85;1.75;;;33.70;32.10;;;;;;926869;152;27330;-74
2022/05/11 11:54:38;;;;;;;2.22;1.85;;;33.70;32.00;;;;;;926514;152;27467;-74
2022/05/11 11:57:05;;;;;;;2.00;1.90;;;33.60;32.20;;;;;;941921;149;27295;-74
2022/05/11 11:59:34;;;;;;;1.90;1.80;;;33.60;32.60;;;;;;944142;150;27421;-74
2022/05/11 12:02:16;;;;;;;6.05;2.50;;;33.60;32.70;;;;;;932880;150;27324;-74
2022/05/11 12:04:42;;;;;;;1.98;1.77;;;33.60;32.70;;;;;;924548;150;27506;-74
2022/05/11 12:15:24;;;;;;;2.22;2.05;;;33.60;32.90;;;;;;936812;150;27430;-74
2022/05/11 12:17:51;;;;;;;2.95;2.12;;;33.60;33.10;;;;;;935751;150;27307;-74
2022/05/11 12:20:17;;;;;;;3.85;1.98;;;33.70;33.20;;;;;;942512;149;27369;-74
2022/05/11 12:22:44;;;;;;;2.45;1.77;;;33.70;33.10;;;;;;942968;149;27370;-74
2022/05/11 12:25:23;;;;;;;1.85;1.75;;;33.70;33.10;;;;;;942164;149;27364;-74
2022/05/11 12:27:49;;;;;;;2.20;2.00;;;33.70;33.00;;;;;;943513;149;27824;-74
2022/05/11 12:30:19;;;;;;;3.05;1.92;;;33.70;33.00;;;;;;943859;149;27455;-74
2022/05/11 12:32:54;;;;;;;1.95;1.85;;;33.70;33.20;;;;;;942968;149;27340;-74
2022/05/11 12:35:26;;;;;;;5.35;2.33;;;33.70;33.10;;;;;;942982;149;27402;-74
2022/05/11 12:37:59;;;;;;;1.82;1.72;;;33.70;33.00;;;;;;942901;149;27782;-74
2022/05/11 12:40:26;;;;;;;1.80;1.70;;;33.70;33.10;;;;;;943242;149;27335;-73
2022/05/11 12:42:52;;;;;;;2.52;2.33;;;33.70;33.10;;;;;;943540;149;27412;-75
2022/05/11 12:45:25;;;;;;;3.45;2.00;;;33.70;33.00;;;;;;943307;149;27441;-74
2022/05/11 12:47:51;;;;;;;2.95;1.57;;;33.70;33.00;;;;;;943809;149;27850;-74
2022/05/11 12:50:17;;;;;;;3.58;2.10;;;33.60;32.60;;;;;;948632;149;28257;-74
2022/05/11 12:52:44;;;;;;;2.20;1.77;;;33.60;32.50;;;;;;927814;152;27391;-74
2022/05/11 12:55:11;;;;;;;2.65;2.12;;;33.60;32.70;;;;;;927024;152;28001;-74
2022/05/11 12:57:37;;;;;;;3.22;1.95;;;33.50;32.80;;;;;;935533;151;27403;-73
2022/05/11 13:00:04;;;;;;;3.95;1.52;;;33.60;32.90;;;;;;943192;149;27348;-74
2022/05/11 13:02:37;;;;;;;1.57;1.47;;;33.60;32.50;;;;;;942138;149;27424;-74
2022/05/11 13:04:57;;;;;;;3.47;1.67;;;33.60;32.30;;;;;;936489;151;27377;-74
2022/05/11 13:07:24;;;;;;;2.60;1.40;;;33.70;32.10;;;;;;936284;151;27331;-74
2022/05/11 13:09:50;;;;;;;4.30;1.77;;;33.70;32.00;;;;;;935481;151;27302;-74
2022/05/11 13:12:17;;;;;;;1.98;1.60;;;33.70;31.80;;;;;;936872;151;27326;-74
2022/05/11 13:14:52;;;;;;;4.33;1.82;;;33.70;31.70;;;;;;937710;151;27444;-74
2022/05/11 13:17:39;;;;;;;1.85;1.55;;;33.70;31.70;;;;;;937412;151;27298;-74
2022/05/11 13:20:18;;;;;;;1.60;1.50;;;33.70;31.70;;;;;;922761;154;27331;-74
2022/05/11 13:22:51;;;;;;;2.20;1.77;;;33.70;31.70;;;;;;937077;150;27336;-74
2022/05/11 13:25:36;;;;;;;1.90;1.60;;;33.70;31.50;;;;;;935204;151;27409;-74
2022/05/11 13:28:24;;;;;;;4.35;1.57;;;33.60;31.60;;;;;;935166;151;27422;-74
2022/05/11 13:30:54;;;;;;;2.27;1.57;;;33.60;31.40;;;;;;935584;151;27476;-74
2022/05/11 13:33:25;;;;;;;1.75;1.65;;;33.60;31.50;;;;;;935348;151;27408;-74
2022/05/11 13:36:07;;;;;;;1.90;1.80;;;33.50;31.30;;;;;;935954;151;27446;-74
2022/05/11 13:38:33;;;;;;;1.40;1.30;;;33.50;31.30;;;;;;926636;152;27337;-73